sensor_id;sensor_type;location;lat;lon;timestamp;temperature;humidity
53776;DHT22;44276;49.534;6.378;2022-08-20T00:02:13;18.30;99.90
53776;DHT22;44276;49.534;6.378;2022-08-20T00:04:42;18.30;99.90
53776;DHT22;44276;49.534;6.378;2022-08-20T00:07:11;18.20;99.90
53776;DHT22;44276;49.534;6.378;2022-08-20T00:09:41;18.20;99.90
53776;DHT22;44276;49.534;6.378;2022-08-20T00:12:12;18.20;99.90
53776;DHT22;44276;49.534;6.378;2022-08-20T00:14:43;18.20;99.90
53776;DHT22;44276;49.534;6.378;2022-08-20T00:17:11;18.20;99.90
53776;DHT22;44276;49.534;6.378;2022-08-20T00:19:39;18.30;99.90
53776;DHT22;44276;49.534;6.378;2022-08-20T00:22:08;18.20;99.90
53776;DHT22;44276;49.534;6.378;2022-08-20T00:24:36;18.20;99.90
53776;DHT22;44276;49.534;6.378;2022-08-20T00:27:07;18.20;99.90
53776;DHT22;44276;49.534;6.378;2022-08-20T00:29:35;18.10;99.90
53776;DHT22;44276;49.534;6.378;2022-08-20T00:32:04;18.10;99.90
53776;DHT22;44276;49.534;6.378;2022-08-20T00:34:32;18.20;99.90
53776;DHT22;44276;49.534;6.378;2022-08-20T00:37:01;18.10;99.90
53776;DHT22;44276;49.534;6.378;2022-08-20T00:39:29;18.20;99.90
53776;DHT22;44276;49.534;6.378;2022-08-20T00:41:58;18.20;99.90
53776;DHT22;44276;49.534;6.378;2022-08-20T00:44:27;18.20;99.90
53776;DHT22;44276;49.534;6.378;2022-08-20T00:46:56;18.30;99.90
53776;DHT22;44276;49.534;6.378;2022-08-20T00:49:27;18.30;99.90
53776;DHT22;44276;49.534;6.378;2022-08-20T00:52:01;18.40;99.90
53776;DHT22;44276;49.534;6.378;2022-08-20T00:54:35;18.30;99.90
53776;DHT22;44276;49.534;6.378;2022-08-20T00:57:09;18.40;99.90
53776;DHT22;44276;49.534;6.378;2022-08-20T00:59:41;18.30;99.90
53776;DHT22;44276;49.534;6.378;2022-08-20T01:02:13;18.30;99.90
53776;DHT22;44276;49.534;6.378;2022-08-20T01:04:43;18.40;99.90
53776;DHT22;44276;49.534;6.378;2022-08-20T01:07:13;18.40;99.90
53776;DHT22;44276;49.534;6.378;2022-08-20T01:09:42;18.30;99.90
53776;DHT22;44276;49.534;6.378;2022-08-20T01:12:27;18.30;99.90
53776;DHT22;44276;49.534;6.378;2022-08-20T01:14:59;18.20;99.90
53776;DHT22;44276;49.534;6.378;2022-08-20T01:17:33;18.20;99.90
53776;DHT22;44276;49.534;6.378;2022-08-20T01:20:13;18.20;99.90
53776;DHT22;44276;49.534;6.378;2022-08-20T01:22:49;18.10;99.90
53776;DHT22;44276;49.534;6.378;2022-08-20T01:25:44;18.10;99.90
53776;DHT22;44276;49.534;6.378;2022-08-20T01:28:20;18.10;99.90
53776;DHT22;44276;49.534;6.378;2022-08-20T01:30:52;18.10;99.90
53776;DHT22;44276;49.534;6.378;2022-08-20T01:33:21;18.10;99.90
53776;DHT22;44276;49.534;6.378;2022-08-20T01:35:51;18.10;99.90
53776;DHT22;44276;49.534;6.378;2022-08-20T01:38:21;18.10;99.90
53776;DHT22;44276;49.534;6.378;2022-08-20T01:41:27;18.00;99.90
53776;DHT22;44276;49.534;6.378;2022-08-20T01:44:12;18.10;99.90
53776;DHT22;44276;49.534;6.378;2022-08-20T01:46:46;18.00;99.90
53776;DHT22;44276;49.534;6.378;2022-08-20T01:49:19;18.00;99.90
53776;DHT22;44276;49.534;6.378;2022-08-20T01:51:52;18.10;99.90
53776;DHT22;44276;49.534;6.378;2022-08-20T01:54:23;18.10;99.90
53776;DHT22;44276;49.534;6.378;2022-08-20T01:56:57;18.10;99.90
53776;DHT22;44276;49.534;6.378;2022-08-20T01:59:29;18.10;99.90
53776;DHT22;44276;49.534;6.378;2022-08-20T02:01:57;18.10;99.90
53776;DHT22;44276;49.534;6.378;2022-08-20T02:04:28;18.00;99.90
53776;DHT22;44276;49.534;6.378;2022-08-20T02:06:59;18.00;99.90
53776;DHT22;44276;49.534;6.378;2022-08-20T02:09:32;18.00;99.90
53776;DHT22;44276;49.534;6.378;2022-08-20T02:12:05;18.10;99.90
53776;DHT22;44276;49.534;6.378;2022-08-20T02:14:39;18.10;99.90
53776;DHT22;44276;49.534;6.378;2022-08-20T02:17:09;18.10;99.90
53776;DHT22;44276;49.534;6.378;2022-08-20T02:19:43;18.20;99.90
53776;DHT22;44276;49.534;6.378;2022-08-20T02:22:18;18.10;99.90
53776;DHT22;44276;49.534;6.378;2022-08-20T02:24:49;18.20;99.90
53776;DHT22;44276;49.534;6.378;2022-08-20T02:27:20;18.20;99.90
53776;DHT22;44276;49.534;6.378;2022-08-20T02:29:49;18.10;99.90
53776;DHT22;44276;49.534;6.378;2022-08-20T02:32:19;18.20;99.90
53776;DHT22;44276;49.534;6.378;2022-08-20T02:35:00;18.30;99.90
53776;DHT22;44276;49.534;6.378;2022-08-20T02:37:29;18.30;99.90
53776;DHT22;44276;49.534;6.378;2022-08-20T02:39:58;18.30;99.90
53776;DHT22;44276;49.534;6.378;2022-08-20T02:42:28;18.30;99.90
53776;DHT22;44276;49.534;6.378;2022-08-20T02:44:56;18.40;99.90
53776;DHT22;44276;49.534;6.378;2022-08-20T02:47:25;18.50;99.90
53776;DHT22;44276;49.534;6.378;2022-08-20T02:49:54;18.40;99.90
53776;DHT22;44276;49.534;6.378;2022-08-20T02:52:23;18.50;99.90
53776;DHT22;44276;49.534;6.378;2022-08-20T02:54:52;18.60;99.90
53776;DHT22;44276;49.534;6.378;2022-08-20T02:57:20;18.60;99.90
53776;DHT22;44276;49.534;6.378;2022-08-20T02:59:50;18.70;99.90
53776;DHT22;44276;49.534;6.378;2022-08-20T03:02:19;18.80;99.90
53776;DHT22;44276;49.534;6.378;2022-08-20T03:04:47;18.70;99.90
53776;DHT22;44276;49.534;6.378;2022-08-20T03:07:15;18.70;99.90
53776;DHT22;44276;49.534;6.378;2022-08-20T03:09:44;18.70;99.90
53776;DHT22;44276;49.534;6.378;2022-08-20T03:12:12;18.70;99.90
53776;DHT22;44276;49.534;6.378;2022-08-20T03:14:41;18.70;99.90
53776;DHT22;44276;49.534;6.378;2022-08-20T03:17:10;18.70;99.90
53776;DHT22;44276;49.534;6.378;2022-08-20T03:19:39;18.70;99.90
53776;DHT22;44276;49.534;6.378;2022-08-20T03:22:07;18.70;99.90
53776;DHT22;44276;49.534;6.378;2022-08-20T03:24:35;18.70;99.90
53776;DHT22;44276;49.534;6.378;2022-08-20T03:27:04;18.60;99.90
53776;DHT22;44276;49.534;6.378;2022-08-20T03:29:32;18.60;99.90
53776;DHT22;44276;49.534;6.378;2022-08-20T03:32:01;18.50;99.90
53776;DHT22;44276;49.534;6.378;2022-08-20T03:34:34;18.50;99.90
53776;DHT22;44276;49.534;6.378;2022-08-20T03:37:02;18.30;99.90
53776;DHT22;44276;49.534;6.378;2022-08-20T03:39:31;18.30;99.90
53776;DHT22;44276;49.534;6.378;2022-08-20T03:41:59;18.30;99.90
53776;DHT22;44276;49.534;6.378;2022-08-20T03:44:28;18.30;99.90
53776;DHT22;44276;49.534;6.378;2022-08-20T03:46:56;18.30;99.90
53776;DHT22;44276;49.534;6.378;2022-08-20T03:49:24;18.30;99.90
53776;DHT22;44276;49.534;6.378;2022-08-20T03:51:54;18.30;99.90
53776;DHT22;44276;49.534;6.378;2022-08-20T03:54:24;18.30;99.90
53776;DHT22;44276;49.534;6.378;2022-08-20T03:56:58;18.30;99.90
53776;DHT22;44276;49.534;6.378;2022-08-20T03:59:38;18.30;99.90
53776;DHT22;44276;49.534;6.378;2022-08-20T04:02:07;18.20;99.90
53776;DHT22;44276;49.534;6.378;2022-08-20T04:04:37;18.20;99.90
53776;DHT22;44276;49.534;6.378;2022-08-20T04:07:13;18.20;99.90
53776;DHT22;44276;49.534;6.378;2022-08-20T04:09:46;18.20;99.90
53776;DHT22;44276;49.534;6.378;2022-08-20T04:12:14;18.20;99.90
53776;DHT22;44276;49.534;6.378;2022-08-20T04:14:42;18.10;99.90
53776;DHT22;44276;49.534;6.378;2022-08-20T04:17:11;18.10;99.90
53776;DHT22;44276;49.534;6.378;2022-08-20T04:19:40;18.10;99.90
53776;DHT22;44276;49.534;6.378;2022-08-20T04:22:11;18.00;99.90
53776;DHT22;44276;49.534;6.378;2022-08-20T04:24:41;18.10;99.90
53776;DHT22;44276;49.534;6.378;2022-08-20T04:27:11;18.00;99.90
53776;DHT22;44276;49.534;6.378;2022-08-20T04:29:40;17.90;99.90
53776;DHT22;44276;49.534;6.378;2022-08-20T04:32:10;17.80;99.90
53776;DHT22;44276;49.534;6.378;2022-08-20T04:34:38;17.70;99.90
53776;DHT22;44276;49.534;6.378;2022-08-20T04:37:06;17.50;99.90
53776;DHT22;44276;49.534;6.378;2022-08-20T04:39:44;17.50;99.90
53776;DHT22;44276;49.534;6.378;2022-08-20T04:42:34;17.40;99.90
53776;DHT22;44276;49.534;6.378;2022-08-20T04:45:05;17.40;99.90
53776;DHT22;44276;49.534;6.378;2022-08-20T04:47:34;17.40;99.90
53776;DHT22;44276;49.534;6.378;2022-08-20T04:50:03;17.40;99.90
53776;DHT22;44276;49.534;6.378;2022-08-20T04:52:36;17.40;99.90
53776;DHT22;44276;49.534;6.378;2022-08-20T04:55:07;17.30;99.90
53776;DHT22;44276;49.534;6.378;2022-08-20T04:57:36;17.30;99.90
53776;DHT22;44276;49.534;6.378;2022-08-20T05:00:07;17.20;99.90
53776;DHT22;44276;49.534;6.378;2022-08-20T05:02:40;17.10;99.90
53776;DHT22;44276;49.534;6.378;2022-08-20T05:05:08;17.10;99.90
53776;DHT22;44276;49.534;6.378;2022-08-20T05:07:39;17.10;99.90
53776;DHT22;44276;49.534;6.378;2022-08-20T05:10:13;17.10;99.90
53776;DHT22;44276;49.534;6.378;2022-08-20T05:12:44;17.00;99.90
53776;DHT22;44276;49.534;6.378;2022-08-20T05:15:23;17.00;99.90
53776;DHT22;44276;49.534;6.378;2022-08-20T05:17:54;17.00;99.90
53776;DHT22;44276;49.534;6.378;2022-08-20T05:20:27;17.00;99.90
53776;DHT22;44276;49.534;6.378;2022-08-20T05:22:56;17.00;99.90
53776;DHT22;44276;49.534;6.378;2022-08-20T05:25:26;17.10;99.90
53776;DHT22;44276;49.534;6.378;2022-08-20T05:27:57;17.60;99.90
53776;DHT22;44276;49.534;6.378;2022-08-20T05:30:27;18.70;99.90
53776;DHT22;44276;49.534;6.378;2022-08-20T05:33:00;19.70;99.90
53776;DHT22;44276;49.534;6.378;2022-08-20T05:35:31;20.60;99.90
53776;DHT22;44276;49.534;6.378;2022-08-20T05:38:06;21.00;99.90
53776;DHT22;44276;49.534;6.378;2022-08-20T05:40:39;20.30;99.90
53776;DHT22;44276;49.534;6.378;2022-08-20T05:43:09;19.50;99.90
53776;DHT22;44276;49.534;6.378;2022-08-20T05:45:39;19.10;99.90
53776;DHT22;44276;49.534;6.378;2022-08-20T05:48:11;18.90;99.90
53776;DHT22;44276;49.534;6.378;2022-08-20T05:50:42;18.90;99.90
53776;DHT22;44276;49.534;6.378;2022-08-20T05:53:15;19.20;99.90
53776;DHT22;44276;49.534;6.378;2022-08-20T05:55:45;19.70;99.90
53776;DHT22;44276;49.534;6.378;2022-08-20T05:58:18;19.90;99.90
53776;DHT22;44276;49.534;6.378;2022-08-20T06:00:49;19.80;99.90
53776;DHT22;44276;49.534;6.378;2022-08-20T06:03:19;20.30;99.90
53776;DHT22;44276;49.534;6.378;2022-08-20T06:06:06;20.30;99.90
53776;DHT22;44276;49.534;6.378;2022-08-20T06:08:54;20.60;99.90
53776;DHT22;44276;49.534;6.378;2022-08-20T06:11:23;20.30;99.90
53776;DHT22;44276;49.534;6.378;2022-08-20T06:13:51;20.50;99.90
53776;DHT22;44276;49.534;6.378;2022-08-20T06:16:20;21.30;99.90
53776;DHT22;44276;49.534;6.378;2022-08-20T06:18:54;21.50;99.90
53776;DHT22;44276;49.534;6.378;2022-08-20T06:21:24;21.30;99.90
53776;DHT22;44276;49.534;6.378;2022-08-20T06:23:52;22.10;99.90
53776;DHT22;44276;49.534;6.378;2022-08-20T06:26:27;22.60;94.00
53776;DHT22;44276;49.534;6.378;2022-08-20T06:28:56;23.30;90.10
53776;DHT22;44276;49.534;6.378;2022-08-20T06:31:25;23.40;83.70
53776;DHT22;44276;49.534;6.378;2022-08-20T06:33:54;23.10;84.70
53776;DHT22;44276;49.534;6.378;2022-08-20T06:36:23;22.30;92.70
53776;DHT22;44276;49.534;6.378;2022-08-20T06:38:51;22.50;92.50
53776;DHT22;44276;49.534;6.378;2022-08-20T06:41:20;22.70;89.80
53776;DHT22;44276;49.534;6.378;2022-08-20T06:44:04;22.70;91.50
53776;DHT22;44276;49.534;6.378;2022-08-20T06:46:33;23.40;88.60
53776;DHT22;44276;49.534;6.378;2022-08-20T06:49:02;23.50;85.60
53776;DHT22;44276;49.534;6.378;2022-08-20T06:51:32;23.80;80.50
53776;DHT22;44276;49.534;6.378;2022-08-20T06:54:00;23.50;85.00
53776;DHT22;44276;49.534;6.378;2022-08-20T06:56:28;23.30;86.40
53776;DHT22;44276;49.534;6.378;2022-08-20T06:58:58;23.80;84.30
53776;DHT22;44276;49.534;6.378;2022-08-20T07:01:28;25.40;71.30
53776;DHT22;44276;49.534;6.378;2022-08-20T07:03:56;26.30;62.40
53776;DHT22;44276;49.534;6.378;2022-08-20T07:06:26;27.40;55.70
53776;DHT22;44276;49.534;6.378;2022-08-20T07:08:54;26.20;56.60
53776;DHT22;44276;49.534;6.378;2022-08-20T07:11:23;23.90;74.10
53776;DHT22;44276;49.534;6.378;2022-08-20T07:13:54;22.10;99.90
53776;DHT22;44276;49.534;6.378;2022-08-20T07:16:23;21.10;99.90
53776;DHT22;44276;49.534;6.378;2022-08-20T07:18:53;20.70;99.90
53776;DHT22;44276;49.534;6.378;2022-08-20T07:21:22;20.50;99.90
53776;DHT22;44276;49.534;6.378;2022-08-20T07:23:50;20.30;99.90
53776;DHT22;44276;49.534;6.378;2022-08-20T07:26:19;20.20;99.90
53776;DHT22;44276;49.534;6.378;2022-08-20T07:28:47;20.00;99.90
53776;DHT22;44276;49.534;6.378;2022-08-20T07:31:16;19.90;99.90
53776;DHT22;44276;49.534;6.378;2022-08-20T07:34:03;19.90;99.90
53776;DHT22;44276;49.534;6.378;2022-08-20T07:36:32;20.10;99.90
53776;DHT22;44276;49.534;6.378;2022-08-20T07:39:01;20.00;99.90
53776;DHT22;44276;49.534;6.378;2022-08-20T07:41:31;20.40;99.90
53776;DHT22;44276;49.534;6.378;2022-08-20T07:44:00;22.00;99.90
53776;DHT22;44276;49.534;6.378;2022-08-20T07:46:28;23.50;85.50
53776;DHT22;44276;49.534;6.378;2022-08-20T07:48:57;23.40;75.90
53776;DHT22;44276;49.534;6.378;2022-08-20T07:51:27;22.80;83.70
53776;DHT22;44276;49.534;6.378;2022-08-20T07:53:55;23.60;75.50
53776;DHT22;44276;49.534;6.378;2022-08-20T07:56:25;24.80;64.60
53776;DHT22;44276;49.534;6.378;2022-08-20T07:58:55;24.00;66.00
53776;DHT22;44276;49.534;6.378;2022-08-20T08:01:27;24.00;66.30
53776;DHT22;44276;49.534;6.378;2022-08-20T08:03:57;24.40;63.50
53776;DHT22;44276;49.534;6.378;2022-08-20T08:06:28;24.50;62.00
53776;DHT22;44276;49.534;6.378;2022-08-20T08:09:01;25.80;54.80
53776;DHT22;44276;49.534;6.378;2022-08-20T08:11:33;26.90;46.40
53776;DHT22;44276;49.534;6.378;2022-08-20T08:14:06;27.00;42.60
53776;DHT22;44276;49.534;6.378;2022-08-20T08:16:36;27.40;40.70
53776;DHT22;44276;49.534;6.378;2022-08-20T08:19:07;26.40;42.80
53776;DHT22;44276;49.534;6.378;2022-08-20T08:21:39;25.50;47.40
53776;DHT22;44276;49.534;6.378;2022-08-20T08:24:07;25.70;46.40
53776;DHT22;44276;49.534;6.378;2022-08-20T08:26:40;26.60;43.20
53776;DHT22;44276;49.534;6.378;2022-08-20T08:29:08;26.50;43.80
53776;DHT22;44276;49.534;6.378;2022-08-20T08:31:37;26.80;43.60
53776;DHT22;44276;49.534;6.378;2022-08-20T08:34:06;26.90;42.20
53776;DHT22;44276;49.534;6.378;2022-08-20T08:36:34;26.80;41.70
53776;DHT22;44276;49.534;6.378;2022-08-20T08:39:06;26.90;41.20
53776;DHT22;44276;49.534;6.378;2022-08-20T08:41:37;27.60;39.30
53776;DHT22;44276;49.534;6.378;2022-08-20T08:44:18;28.70;35.80
53776;DHT22;44276;49.534;6.378;2022-08-20T08:46:51;28.80;35.20
53776;DHT22;44276;49.534;6.378;2022-08-20T08:49:34;29.10;33.90
53776;DHT22;44276;49.534;6.378;2022-08-20T08:52:06;28.70;33.50
53776;DHT22;44276;49.534;6.378;2022-08-20T08:54:45;26.80;37.80
53776;DHT22;44276;49.534;6.378;2022-08-20T08:57:15;27.40;38.30
53776;DHT22;44276;49.534;6.378;2022-08-20T08:59:53;27.70;36.00
53776;DHT22;44276;49.534;6.378;2022-08-20T09:02:32;26.80;38.70
53776;DHT22;44276;49.534;6.378;2022-08-20T09:05:09;26.10;41.00
53776;DHT22;44276;49.534;6.378;2022-08-20T09:07:44;25.80;43.10
53776;DHT22;44276;49.534;6.378;2022-08-20T09:10:20;26.70;41.50
53776;DHT22;44276;49.534;6.378;2022-08-20T09:12:49;26.40;40.40
53776;DHT22;44276;49.534;6.378;2022-08-20T09:15:18;26.00;42.50
53776;DHT22;44276;49.534;6.378;2022-08-20T09:17:47;27.40;39.60
53776;DHT22;44276;49.534;6.378;2022-08-20T09:20:15;28.30;35.80
53776;DHT22;44276;49.534;6.378;2022-08-20T09:22:44;28.70;34.20
53776;DHT22;44276;49.534;6.378;2022-08-20T09:25:13;29.50;32.80
53776;DHT22;44276;49.534;6.378;2022-08-20T09:27:44;30.40;30.60
53776;DHT22;44276;49.534;6.378;2022-08-20T09:30:14;29.60;31.40
53776;DHT22;44276;49.534;6.378;2022-08-20T09:32:44;28.10;34.30
53776;DHT22;44276;49.534;6.378;2022-08-20T09:35:12;28.20;34.60
53776;DHT22;44276;49.534;6.378;2022-08-20T09:37:41;28.70;33.70
53776;DHT22;44276;49.534;6.378;2022-08-20T09:40:10;29.30;32.20
53776;DHT22;44276;49.534;6.378;2022-08-20T09:42:48;29.00;32.90
53776;DHT22;44276;49.534;6.378;2022-08-20T09:45:17;28.10;34.70
53776;DHT22;44276;49.534;6.378;2022-08-20T09:47:46;26.80;37.30
53776;DHT22;44276;49.534;6.378;2022-08-20T09:50:23;26.70;38.00
53776;DHT22;44276;49.534;6.378;2022-08-20T09:52:53;27.30;36.80
53776;DHT22;44276;49.534;6.378;2022-08-20T09:55:29;27.90;35.40
53776;DHT22;44276;49.534;6.378;2022-08-20T09:58:04;27.80;35.30
53776;DHT22;44276;49.534;6.378;2022-08-20T10:00:34;28.50;34.70
53776;DHT22;44276;49.534;6.378;2022-08-20T10:03:02;28.50;33.70
53776;DHT22;44276;49.534;6.378;2022-08-20T10:05:30;28.60;33.10
53776;DHT22;44276;49.534;6.378;2022-08-20T10:07:58;28.20;34.30
53776;DHT22;44276;49.534;6.378;2022-08-20T10:10:26;27.90;35.90
53776;DHT22;44276;49.534;6.378;2022-08-20T10:12:55;27.60;35.90
53776;DHT22;44276;49.534;6.378;2022-08-20T10:15:24;27.40;36.80
53776;DHT22;44276;49.534;6.378;2022-08-20T10:17:53;28.60;34.30
53776;DHT22;44276;49.534;6.378;2022-08-20T10:20:23;29.40;32.30
53776;DHT22;44276;49.534;6.378;2022-08-20T10:22:52;29.70;30.60
53776;DHT22;44276;49.534;6.378;2022-08-20T10:25:20;29.00;31.60
53776;DHT22;44276;49.534;6.378;2022-08-20T10:27:48;29.40;31.00
53776;DHT22;44276;49.534;6.378;2022-08-20T10:30:16;29.70;30.90
53776;DHT22;44276;49.534;6.378;2022-08-20T10:32:46;29.50;31.40
53776;DHT22;44276;49.534;6.378;2022-08-20T10:35:15;28.80;32.60
53776;DHT22;44276;49.534;6.378;2022-08-20T10:37:43;28.50;32.70
53776;DHT22;44276;49.534;6.378;2022-08-20T10:40:12;28.90;32.00
53776;DHT22;44276;49.534;6.378;2022-08-20T10:42:42;28.90;32.10
53776;DHT22;44276;49.534;6.378;2022-08-20T10:45:12;28.80;32.20
53776;DHT22;44276;49.534;6.378;2022-08-20T10:47:42;28.60;33.10
53776;DHT22;44276;49.534;6.378;2022-08-20T10:50:15;30.30;30.00
53776;DHT22;44276;49.534;6.378;2022-08-20T10:52:45;31.60;28.00
53776;DHT22;44276;49.534;6.378;2022-08-20T10:55:14;33.10;26.30
53776;DHT22;44276;49.534;6.378;2022-08-20T10:57:42;32.70;26.20
53776;DHT22;44276;49.534;6.378;2022-08-20T11:00:14;32.40;27.20
53776;DHT22;44276;49.534;6.378;2022-08-20T11:02:44;33.60;25.00
53776;DHT22;44276;49.534;6.378;2022-08-20T11:05:14;33.20;25.30
53776;DHT22;44276;49.534;6.378;2022-08-20T11:07:44;34.00;24.60
53776;DHT22;44276;49.534;6.378;2022-08-20T11:10:26;35.10;23.60
53776;DHT22;44276;49.534;6.378;2022-08-20T11:12:56;34.80;22.60
53776;DHT22;44276;49.534;6.378;2022-08-20T11:15:24;33.60;23.90
53776;DHT22;44276;49.534;6.378;2022-08-20T11:17:53;33.10;24.50
53776;DHT22;44276;49.534;6.378;2022-08-20T11:20:24;33.90;23.00
53776;DHT22;44276;49.534;6.378;2022-08-20T11:22:53;32.10;24.80
53776;DHT22;44276;49.534;6.378;2022-08-20T11:25:22;30.10;27.10
53776;DHT22;44276;49.534;6.378;2022-08-20T11:27:51;29.90;27.90
53776;DHT22;44276;49.534;6.378;2022-08-20T11:30:22;31.00;26.60
53776;DHT22;44276;49.534;6.378;2022-08-20T11:32:52;31.30;26.30
53776;DHT22;44276;49.534;6.378;2022-08-20T11:35:20;30.90;26.70
53776;DHT22;44276;49.534;6.378;2022-08-20T11:38:10;29.70;27.60
53776;DHT22;44276;49.534;6.378;2022-08-20T11:40:38;30.60;26.90
53776;DHT22;44276;49.534;6.378;2022-08-20T11:43:07;32.20;24.80
53776;DHT22;44276;49.534;6.378;2022-08-20T11:45:44;33.00;24.10
53776;DHT22;44276;49.534;6.378;2022-08-20T11:48:15;34.40;21.50
53776;DHT22;44276;49.534;6.378;2022-08-20T11:50:44;34.20;21.70
53776;DHT22;44276;49.534;6.378;2022-08-20T11:53:14;33.70;21.90
53776;DHT22;44276;49.534;6.378;2022-08-20T11:55:42;33.80;21.90
53776;DHT22;44276;49.534;6.378;2022-08-20T11:58:11;33.60;21.70
53776;DHT22;44276;49.534;6.378;2022-08-20T12:00:39;33.80;22.00
53776;DHT22;44276;49.534;6.378;2022-08-20T12:03:08;33.90;22.30
53776;DHT22;44276;49.534;6.378;2022-08-20T12:05:39;33.40;22.00
53776;DHT22;44276;49.534;6.378;2022-08-20T12:08:11;33.80;21.90
53776;DHT22;44276;49.534;6.378;2022-08-20T12:10:54;34.70;20.50
53776;DHT22;44276;49.534;6.378;2022-08-20T12:13:23;34.50;20.60
53776;DHT22;44276;49.534;6.378;2022-08-20T12:16:11;34.10;21.20
53776;DHT22;44276;49.534;6.378;2022-08-20T12:18:39;33.60;21.80
53776;DHT22;44276;49.534;6.378;2022-08-20T12:21:08;32.30;23.60
53776;DHT22;44276;49.534;6.378;2022-08-20T12:23:37;32.20;23.30
53776;DHT22;44276;49.534;6.378;2022-08-20T12:26:05;32.00;23.50
53776;DHT22;44276;49.534;6.378;2022-08-20T12:28:34;32.20;23.50
53776;DHT22;44276;49.534;6.378;2022-08-20T12:31:02;32.80;22.80
53776;DHT22;44276;49.534;6.378;2022-08-20T12:33:30;32.90;22.60
53776;DHT22;44276;49.534;6.378;2022-08-20T12:35:58;33.30;22.20
53776;DHT22;44276;49.534;6.378;2022-08-20T12:38:27;33.70;21.90
53776;DHT22;44276;49.534;6.378;2022-08-20T12:40:56;33.00;22.50
53776;DHT22;44276;49.534;6.378;2022-08-20T12:43:24;32.40;23.30
53776;DHT22;44276;49.534;6.378;2022-08-20T12:45:52;32.40;22.50
53776;DHT22;44276;49.534;6.378;2022-08-20T12:48:21;31.80;23.10
53776;DHT22;44276;49.534;6.378;2022-08-20T12:50:49;31.30;23.40
53776;DHT22;44276;49.534;6.378;2022-08-20T12:53:18;31.20;23.90
53776;DHT22;44276;49.534;6.378;2022-08-20T12:55:46;31.30;23.40
53776;DHT22;44276;49.534;6.378;2022-08-20T12:58:16;31.70;23.60
53776;DHT22;44276;49.534;6.378;2022-08-20T13:00:45;32.70;22.10
53776;DHT22;44276;49.534;6.378;2022-08-20T13:03:17;33.10;22.00
53776;DHT22;44276;49.534;6.378;2022-08-20T13:05:47;32.80;22.20
53776;DHT22;44276;49.534;6.378;2022-08-20T13:08:16;31.50;22.90
53776;DHT22;44276;49.534;6.378;2022-08-20T13:10:45;31.30;23.10
53776;DHT22;44276;49.534;6.378;2022-08-20T13:13:16;31.20;23.10
53776;DHT22;44276;49.534;6.378;2022-08-20T13:15:47;31.40;22.90
53776;DHT22;44276;49.534;6.378;2022-08-20T13:18:16;31.50;22.80
53776;DHT22;44276;49.534;6.378;2022-08-20T13:20:44;31.90;22.30
53776;DHT22;44276;49.534;6.378;2022-08-20T13:23:13;32.40;21.60
53776;DHT22;44276;49.534;6.378;2022-08-20T13:25:41;32.80;21.30
53776;DHT22;44276;49.534;6.378;2022-08-20T13:28:10;33.50;21.10
53776;DHT22;44276;49.534;6.378;2022-08-20T13:30:39;34.00;20.10
53776;DHT22;44276;49.534;6.378;2022-08-20T13:33:07;33.30;21.10
53776;DHT22;44276;49.534;6.378;2022-08-20T13:35:36;33.00;21.30
53776;DHT22;44276;49.534;6.378;2022-08-20T13:38:04;32.20;21.80
53776;DHT22;44276;49.534;6.378;2022-08-20T13:40:32;31.90;21.60
53776;DHT22;44276;49.534;6.378;2022-08-20T13:43:01;31.80;21.90
53776;DHT22;44276;49.534;6.378;2022-08-20T13:45:33;31.80;21.20
53776;DHT22;44276;49.534;6.378;2022-08-20T13:48:04;32.00;20.50
53776;DHT22;44276;49.534;6.378;2022-08-20T13:50:41;31.90;20.80
53776;DHT22;44276;49.534;6.378;2022-08-20T13:53:12;31.90;20.90
53776;DHT22;44276;49.534;6.378;2022-08-20T13:55:41;32.00;21.10
53776;DHT22;44276;49.534;6.378;2022-08-20T13:58:09;32.30;20.70
53776;DHT22;44276;49.534;6.378;2022-08-20T14:00:37;32.50;20.40
53776;DHT22;44276;49.534;6.378;2022-08-20T14:03:07;32.70;20.10
53776;DHT22;44276;49.534;6.378;2022-08-20T14:05:36;33.30;19.50
53776;DHT22;44276;49.534;6.378;2022-08-20T14:08:07;33.60;19.50
53776;DHT22;44276;49.534;6.378;2022-08-20T14:10:37;33.20;19.60
53776;DHT22;44276;49.534;6.378;2022-08-20T14:13:08;33.00;19.90
53776;DHT22;44276;49.534;6.378;2022-08-20T14:15:43;33.10;19.60
53776;DHT22;44276;49.534;6.378;2022-08-20T14:18:14;32.50;19.80
53776;DHT22;44276;49.534;6.378;2022-08-20T14:20:43;31.90;20.10
53776;DHT22;44276;49.534;6.378;2022-08-20T14:23:12;31.10;20.40
53776;DHT22;44276;49.534;6.378;2022-08-20T14:25:44;30.60;21.00
53776;DHT22;44276;49.534;6.378;2022-08-20T14:28:15;30.70;21.50
53776;DHT22;44276;49.534;6.378;2022-08-20T14:30:46;30.90;21.20
53776;DHT22;44276;49.534;6.378;2022-08-20T14:33:21;31.00;21.30
53776;DHT22;44276;49.534;6.378;2022-08-20T14:35:50;31.10;20.40
53776;DHT22;44276;49.534;6.378;2022-08-20T14:38:19;31.10;20.40
53776;DHT22;44276;49.534;6.378;2022-08-20T14:40:47;31.40;20.20
53776;DHT22;44276;49.534;6.378;2022-08-20T14:43:16;31.40;20.50
53776;DHT22;44276;49.534;6.378;2022-08-20T14:45:44;31.50;20.50
53776;DHT22;44276;49.534;6.378;2022-08-20T14:48:12;31.50;20.90
53776;DHT22;44276;49.534;6.378;2022-08-20T14:50:42;31.40;21.30
53776;DHT22;44276;49.534;6.378;2022-08-20T14:53:11;31.20;20.50
53776;DHT22;44276;49.534;6.378;2022-08-20T14:55:39;31.10;20.80
53776;DHT22;44276;49.534;6.378;2022-08-20T14:58:08;31.10;20.60
53776;DHT22;44276;49.534;6.378;2022-08-20T15:00:38;31.20;20.80
53776;DHT22;44276;49.534;6.378;2022-08-20T15:03:08;31.20;20.40
53776;DHT22;44276;49.534;6.378;2022-08-20T15:05:36;31.30;20.30
53776;DHT22;44276;49.534;6.378;2022-08-20T15:08:07;30.90;20.90
53776;DHT22;44276;49.534;6.378;2022-08-20T15:10:37;30.80;21.00
53776;DHT22;44276;49.534;6.378;2022-08-20T15:13:06;30.40;21.90
53776;DHT22;44276;49.534;6.378;2022-08-20T15:15:34;30.30;22.30
53776;DHT22;44276;49.534;6.378;2022-08-20T15:18:03;30.10;21.50
53776;DHT22;44276;49.534;6.378;2022-08-20T15:20:33;29.70;22.70
53776;DHT22;44276;49.534;6.378;2022-08-20T15:23:03;29.70;23.00
53776;DHT22;44276;49.534;6.378;2022-08-20T15:25:34;29.80;22.70
53776;DHT22;44276;49.534;6.378;2022-08-20T15:28:05;30.00;21.90
53776;DHT22;44276;49.534;6.378;2022-08-20T15:30:36;30.20;22.00
53776;DHT22;44276;49.534;6.378;2022-08-20T15:33:06;30.50;21.90
53776;DHT22;44276;49.534;6.378;2022-08-20T15:35:35;30.80;21.50
53776;DHT22;44276;49.534;6.378;2022-08-20T15:38:03;30.80;21.00
53776;DHT22;44276;49.534;6.378;2022-08-20T15:40:33;30.70;21.80
53776;DHT22;44276;49.534;6.378;2022-08-20T15:43:03;30.50;22.20
53776;DHT22;44276;49.534;6.378;2022-08-20T15:45:32;30.50;22.00
53776;DHT22;44276;49.534;6.378;2022-08-20T15:48:08;30.60;21.90
53776;DHT22;44276;49.534;6.378;2022-08-20T15:51:00;30.40;22.20
53776;DHT22;44276;49.534;6.378;2022-08-20T15:53:49;30.30;22.40